Time;durP1;ratioP1;P1;durP2;ratioP2;P2;SDS_P1;SDS_P2;PMS_P1;PMS_P2;Temp;Humidity;BMP_temperature;BMP_pressure;BME280_temperature;BME280_humidity;BME280_pressure;Samples;Min_cycle;Max_cycle;Signal;HPM_P1;HPM_P2
2020/12/18 00:00:54;;;;;;;13.17;11.37;;;7.10;99.90;;;;;;5097023;28;20764;-62
2020/12/18 00:03:20;;;;;;;14.43;12.97;;;7.10;99.90;;;;;;5096675;28;20181;-62
2020/12/18 00:05:45;;;;;;;13.93;11.70;;;7.10;99.90;;;;;;5096358;28;20284;-63
2020/12/18 00:08:11;;;;;;;12.83;11.40;;;7.10;99.90;;;;;;5097001;28;20214;-61
2020/12/18 00:10:41;;;;;;;13.10;11.80;;;7.00;99.90;;;;;;5096342;28;20552;-61
2020/12/18 00:13:08;;;;;;;15.27;13.67;;;6.80;99.90;;;;;;5096807;28;20157;-61
2020/12/18 00:15:33;;;;;;;11.33;10.27;;;6.70;99.90;;;;;;5096216;28;20403;-60
2020/12/18 00:17:59;;;;;;;15.90;14.30;;;6.70;99.90;;;;;;5094268;28;20423;-59
2020/12/18 00:20:25;;;;;;;13.27;11.97;;;6.80;99.90;;;;;;5076013;28;20182;-61
2020/12/18 00:22:50;;;;;;;14.90;13.03;;;6.80;99.90;;;;;;5075984;28;20174;-60
2020/12/18 00:25:16;;;;;;;15.30;13.33;;;6.70;99.90;;;;;;5075673;28;20186;-60
2020/12/18 00:27:43;;;;;;;17.33;14.77;;;6.60;99.90;;;;;;5076415;28;20241;-59
2020/12/18 00:30:11;;;;;;;17.93;13.67;;;6.60;99.90;;;;;;5076713;28;20949;-60
2020/12/18 00:32:40;;;;;;;14.90;13.40;;;6.60;99.90;;;;;;5076215;28;20914;-62
2020/12/18 00:35:07;;;;;;;16.67;14.10;;;6.60;99.90;;;;;;5076184;28;20408;-60
2020/12/18 00:37:33;;;;;;;16.13;13.73;;;6.50;99.90;;;;;;5076082;28;20493;-58
2020/12/18 00:39:59;;;;;;;13.77;12.37;;;6.50;99.90;;;;;;5076422;28;20487;-61
2020/12/18 00:42:27;;;;;;;13.70;11.40;;;6.50;99.90;;;;;;5076344;28;20202;-61
2020/12/18 00:44:53;;;;;;;13.37;12.07;;;6.60;99.90;;;;;;5074634;28;20987;-62
2020/12/18 00:47:18;;;;;;;13.83;11.73;;;6.70;99.90;;;;;;5076163;28;20435;-61
2020/12/18 00:49:44;;;;;;;13.20;11.67;;;6.70;99.90;;;;;;5076143;28;20556;-62
2020/12/18 00:52:09;;;;;;;17.27;13.67;;;6.70;99.90;;;;;;5075819;28;20177;-61
2020/12/18 00:54:35;;;;;;;20.27;12.90;;;6.60;99.90;;;;;;5076198;28;20177;-61
2020/12/18 00:57:01;;;;;;;16.60;14.90;;;6.50;99.90;;;;;;5076095;28;20209;-62
2020/12/18 00:59:26;;;;;;;19.73;15.37;;;6.50;99.90;;;;;;5076111;28;20823;-60
2020/12/18 01:01:59;;;;;;;14.83;12.97;;;6.60;99.90;;;;;;5075727;28;20170;-60
2020/12/18 01:04:26;;;;;;;17.37;15.17;;;6.50;99.90;;;;;;5075755;28;20181;-60
2020/12/18 01:06:53;;;;;;;17.17;15.47;;;6.40;99.90;;;;;;5076726;28;20511;-60
2020/12/18 01:09:23;;;;;;;22.93;18.00;;;6.20;99.90;;;;;;5078300;28;20483;-59
2020/12/18 01:11:49;;;;;;;14.50;12.50;;;6.20;99.90;;;;;;5078274;28;20404;-60
2020/12/18 01:14:15;;;;;;;19.37;17.03;;;6.30;99.90;;;;;;5077782;28;20779;-61
2020/12/18 01:16:41;;;;;;;20.60;17.53;;;6.30;99.90;;;;;;5078173;28;20458;-60
2020/12/18 01:19:07;;;;;;;19.40;14.87;;;6.20;99.90;;;;;;5080602;28;20444;-61
2020/12/18 01:21:34;;;;;;;17.17;15.33;;;6.10;99.90;;;;;;5080122;28;20170;-59
2020/12/18 01:23:59;;;;;;;16.33;14.63;;;6.20;99.90;;;;;;5079167;28;20545;-59
2020/12/18 01:26:25;;;;;;;18.13;15.60;;;6.10;99.90;;;;;;5078661;28;20452;-61
2020/12/18 01:28:51;;;;;;;19.13;17.00;;;6.20;99.90;;;;;;5077456;28;20189;-59
2020/12/18 01:31:16;;;;;;;17.03;15.30;;;6.30;99.90;;;;;;5073909;28;20411;-60
2020/12/18 01:33:42;;;;;;;17.53;15.70;;;6.40;99.90;;;;;;5075380;28;20230;-59
2020/12/18 01:36:08;;;;;;;14.00;12.70;;;6.50;99.90;;;;;;5075018;28;20178;-60
2020/12/18 01:38:34;;;;;;;17.17;15.37;;;6.50;99.90;;;;;;5075112;28;20193;-59
2020/12/18 01:41:00;;;;;;;15.73;14.13;;;6.60;99.90;;;;;;5075359;28;20170;-60
2020/12/18 01:43:26;;;;;;;13.60;12.27;;;6.60;99.90;;;;;;5075133;28;20404;-60
2020/12/18 01:45:52;;;;;;;16.60;14.90;;;6.70;99.90;;;;;;5074713;28;20452;-60
2020/12/18 01:48:17;;;;;;;14.67;13.27;;;6.60;99.90;;;;;;5074803;28;20200;-60
2020/12/18 01:50:43;;;;;;;13.73;12.33;;;6.60;99.90;;;;;;5075015;28;20563;-59
2020/12/18 01:53:10;;;;;;;16.60;14.80;;;6.70;99.90;;;;;;5073882;28;20169;-62
2020/12/18 01:55:36;;;;;;;14.03;12.63;;;6.80;99.90;;;;;;5074731;28;20431;-62
2020/12/18 01:58:02;;;;;;;16.23;14.63;;;6.90;99.90;;;;;;5074578;28;20424;-61
2020/12/18 02:00:28;;;;;;;15.33;13.80;;;6.90;99.90;;;;;;5075042;28;20734;-60
2020/12/18 02:02:54;;;;;;;15.07;13.50;;;6.90;99.90;;;;;;5074341;28;20279;-61
2020/12/18 02:05:20;;;;;;;18.40;12.90;;;6.90;99.90;;;;;;5086035;28;20226;-61
2020/12/18 02:07:59;;;;;;;14.83;13.37;;;7.00;99.90;;;;;;5094478;28;20422;-58
2020/12/18 02:10:25;;;;;;;19.90;14.20;;;7.10;99.90;;;;;;5094889;28;20742;-61
2020/12/18 02:12:50;;;;;;;14.83;13.27;;;7.10;99.90;;;;;;5085170;28;20506;-59
2020/12/18 02:15:16;;;;;;;14.67;13.13;;;7.10;99.90;;;;;;5074747;28;20315;-59
2020/12/18 02:17:42;;;;;;;14.87;13.37;;;7.10;99.90;;;;;;5073967;28;20185;-58
2020/12/18 02:20:08;;;;;;;14.07;12.67;;;7.00;99.90;;;;;;5073662;28;20239;-60
2020/12/18 02:22:33;;;;;;;13.27;12.03;;;7.00;99.90;;;;;;5073769;28;20412;-60
2020/12/18 02:25:06;;;;;;;12.50;11.30;;;7.00;99.90;;;;;;5073956;28;20666;-60
2020/12/18 02:27:32;;;;;;;13.53;12.23;;;7.00;99.90;;;;;;5074627;28;20204;-60
2020/12/18 02:29:57;;;;;;;14.30;12.90;;;7.00;99.90;;;;;;5073781;28;20491;-60
2020/12/18 02:32:23;;;;;;;12.97;11.67;;;6.90;99.90;;;;;;5073839;28;20162;-61
2020/12/18 02:34:49;;;;;;;13.77;12.40;;;7.00;99.90;;;;;;5073849;28;20162;-61
2020/12/18 02:37:15;;;;;;;14.53;11.20;;;6.90;99.90;;;;;;5073858;28;20680;-60
2020/12/18 02:39:40;;;;;;;13.57;11.97;;;6.90;99.90;;;;;;5073914;28;20437;-59
2020/12/18 02:42:06;;;;;;;15.97;13.90;;;6.90;99.90;;;;;;5073909;28;20529;-58
2020/12/18 02:44:32;;;;;;;13.50;12.30;;;6.90;99.90;;;;;;5073359;28;20184;-58
2020/12/18 02:46:57;;;;;;;12.80;11.00;;;6.90;99.90;;;;;;5073049;28;20532;-58
2020/12/18 02:49:23;;;;;;;12.23;11.03;;;6.90;99.90;;;;;;5073589;28;20182;-61
2020/12/18 02:51:48;;;;;;;14.33;12.93;;;6.90;99.90;;;;;;5073470;28;20173;-60
2020/12/18 02:54:14;;;;;;;13.30;11.83;;;7.00;99.90;;;;;;5073626;28;20668;-59
2020/12/18 02:56:40;;;;;;;11.90;10.77;;;6.70;99.90;;;;;;5073764;28;20569;-61
2020/12/18 02:59:06;;;;;;;13.03;11.83;;;6.60;99.90;;;;;;5073879;28;20174;-61
2020/12/18 03:01:32;;;;;;;12.43;11.23;;;6.60;99.90;;;;;;5074165;28;20602;-60
2020/12/18 03:03:58;;;;;;;13.73;12.33;;;6.60;99.90;;;;;;5073932;28;20846;-60
2020/12/18 03:06:24;;;;;;;12.87;11.60;;;6.70;99.90;;;;;;5073197;28;21039;-61
2020/12/18 03:08:49;;;;;;;13.60;12.00;;;6.70;99.90;;;;;;5073268;28;20243;-61
2020/12/18 03:11:15;;;;;;;14.87;13.10;;;6.70;99.90;;;;;;5073365;28;20904;-59
2020/12/18 03:13:44;;;;;;;12.93;11.63;;;6.60;99.90;;;;;;5073426;28;20199;-58
2020/12/18 03:16:11;;;;;;;12.97;11.67;;;6.50;99.90;;;;;;5073278;28;20439;-60
2020/12/18 03:18:37;;;;;;;13.43;12.07;;;6.50;99.90;;;;;;5073122;28;20432;-61
2020/12/18 03:21:02;;;;;;;13.03;11.73;;;6.60;99.90;;;;;;5073964;28;20806;-61
2020/12/18 03:23:28;;;;;;;11.70;10.33;;;6.60;99.90;;;;;;5073000;28;20408;-59
2020/12/18 03:25:53;;;;;;;14.13;12.83;;;6.60;99.90;;;;;;5072729;28;20688;-61
2020/12/18 03:28:19;;;;;;;14.03;12.60;;;6.60;99.90;;;;;;5073209;28;20190;-61
2020/12/18 03:30:45;;;;;;;14.77;12.40;;;6.60;99.90;;;;;;5073390;28;20166;-60
2020/12/18 03:33:10;;;;;;;13.03;11.20;;;6.50;99.90;;;;;;5073303;28;20231;-60
2020/12/18 03:35:36;;;;;;;10.50;9.60;;;6.60;99.90;;;;;;5072491;28;20288;-67
2020/12/18 03:38:02;;;;;;;13.43;12.03;;;6.70;99.90;;;;;;5073145;28;20193;-59
2020/12/18 03:40:28;;;;;;;15.03;11.60;;;6.70;99.90;;;;;;5073144;28;20408;-59
2020/12/18 03:42:53;;;;;;;12.70;10.77;;;6.90;99.90;;;;;;5073173;28;20170;-61
2020/12/18 03:45:19;;;;;;;11.77;10.27;;;6.90;99.90;;;;;;5073380;28;20292;-59
2020/12/18 03:47:44;;;;;;;13.90;12.60;;;7.00;99.90;;;;;;5072880;28;20186;-60
2020/12/18 03:50:10;;;;;;;13.17;11.87;;;7.10;99.90;;;;;;5073545;28;20166;-61
2020/12/18 03:52:36;;;;;;;13.10;11.30;;;7.20;99.90;;;;;;5073291;28;20174;-59
2020/12/18 03:55:02;;;;;;;12.57;11.37;;;7.30;99.90;;;;;;5073303;28;20178;-59
2020/12/18 03:57:27;;;;;;;11.33;9.93;;;7.40;99.90;;;;;;5071889;28;20190;-60
2020/12/18 03:59:53;;;;;;;12.30;11.10;;;7.40;99.90;;;;;;5073316;28;20462;-58
2020/12/18 04:02:19;;;;;;;11.97;10.73;;;7.60;99.90;;;;;;5073532;28;20266;-60
2020/12/18 04:04:44;;;;;;;12.10;10.83;;;7.60;99.90;;;;;;5071256;28;20189;-61
2020/12/18 04:07:13;;;;;;;11.43;10.23;;;7.70;99.90;;;;;;5092352;28;20665;-60
2020/12/18 04:09:42;;;;;;;11.70;10.57;;;7.60;99.90;;;;;;5093810;28;20633;-59
2020/12/18 04:12:08;;;;;;;11.00;10.00;;;7.70;99.90;;;;;;5093248;28;20418;-59
2020/12/18 04:14:34;;;;;;;12.03;9.90;;;7.80;99.90;;;;;;5093379;28;20907;-60
2020/12/18 04:17:03;;;;;;;10.90;9.77;;;7.80;99.90;;;;;;5092802;28;20428;-57
2020/12/18 04:19:30;;;;;;;13.63;12.20;;;7.80;99.90;;;;;;5078037;28;20242;-59
2020/12/18 04:21:55;;;;;;;12.13;10.93;;;7.80;99.90;;;;;;5072454;28;20415;-60
2020/12/18 04:24:21;;;;;;;12.80;11.60;;;7.90;99.90;;;;;;5072611;28;20412;-60
2020/12/18 04:26:47;;;;;;;10.73;9.63;;;7.90;99.90;;;;;;5072439;28;20209;-60
2020/12/18 04:29:13;;;;;;;14.50;12.77;;;7.80;99.90;;;;;;5072545;28;20180;-59
2020/12/18 04:31:39;;;;;;;12.57;11.20;;;7.80;99.90;;;;;;5072765;28;20401;-60
2020/12/18 04:34:05;;;;;;;13.93;12.60;;;7.70;99.90;;;;;;5072807;28;20752;-61
2020/12/18 04:36:30;;;;;;;12.93;11.43;;;7.70;99.90;;;;;;5072503;28;20224;-60
2020/12/18 04:38:56;;;;;;;11.40;10.40;;;7.70;99.90;;;;;;5074864;28;20239;-60
2020/12/18 04:41:21;;;;;;;13.30;12.00;;;7.80;99.90;;;;;;5076016;28;20186;-60
2020/12/18 04:43:47;;;;;;;13.77;12.37;;;7.80;99.90;;;;;;5076140;28;20699;-60
2020/12/18 04:46:17;;;;;;;13.70;12.30;;;7.80;99.90;;;;;;5076446;28;20190;-59
2020/12/18 04:48:46;;;;;;;13.57;12.10;;;7.60;99.90;;;;;;5075826;28;20511;-60
2020/12/18 04:51:32;;;;;;;12.50;11.30;;;7.60;99.90;;;;;;5076057;28;20408;-60
2020/12/18 04:54:00;;;;;;;15.53;12.90;;;7.70;99.90;;;;;;5075334;28;20452;-60
2020/12/18 04:56:26;;;;;;;12.63;11.33;;;7.60;99.90;;;;;;5075403;28;20404;-59
2020/12/18 04:58:56;;;;;;;16.10;14.40;;;7.60;99.90;;;;;;5075669;28;20458;-60
2020/12/18 05:01:24;;;;;;;12.57;11.43;;;7.50;99.90;;;;;;5075785;28;20436;-62
2020/12/18 05:03:50;;;;;;;14.87;13.37;;;7.50;99.90;;;;;;5076592;28;20400;-61
2020/12/18 05:06:16;;;;;;;15.20;13.80;;;7.30;99.90;;;;;;5084917;28;20451;-61
2020/12/18 05:08:43;;;;;;;14.63;13.37;;;7.40;99.90;;;;;;5096227;28;20422;-62
2020/12/18 05:11:22;;;;;;;13.43;12.10;;;7.30;99.90;;;;;;5096193;28;20395;-60
2020/12/18 05:13:48;;;;;;;14.10;12.70;;;7.40;99.90;;;;;;5095947;28;20460;-61
2020/12/18 05:16:16;;;;;;;13.87;12.47;;;7.40;99.90;;;;;;5095638;28;20899;-60
2020/12/18 05:18:42;;;;;;;14.13;12.83;;;7.30;99.90;;;;;;5087273;28;20470;-61
2020/12/18 05:21:07;;;;;;;15.63;13.20;;;7.30;99.90;;;;;;5075252;28;20400;-61
2020/12/18 05:23:40;;;;;;;16.43;14.57;;;7.30;99.90;;;;;;5075015;28;20170;-62
2020/12/18 05:26:08;;;;;;;14.77;13.30;;;7.40;99.90;;;;;;5075059;28;20190;-59
2020/12/18 05:28:44;;;;;;;15.47;13.87;;;7.40;99.90;;;;;;5075134;28;20432;-59
2020/12/18 05:31:18;;;;;;;16.63;14.43;;;7.40;99.90;;;;;;5075454;28;20392;-60
2020/12/18 05:33:46;;;;;;;15.20;13.70;;;7.30;99.90;;;;;;5075535;28;20717;-61
2020/12/18 05:36:12;;;;;;;14.40;13.00;;;7.10;99.90;;;;;;5075118;28;20923;-59
2020/12/18 05:38:39;;;;;;;15.20;13.70;;;7.20;99.90;;;;;;5074700;28;20429;-62
2020/12/18 05:41:06;;;;;;;13.10;11.73;;;7.20;99.90;;;;;;5075014;28;20416;-61
2020/12/18 05:43:42;;;;;;;14.07;12.67;;;7.30;99.90;;;;;;5075734;28;20924;-61
2020/12/18 05:46:21;;;;;;;17.47;15.87;;;7.40;99.90;;;;;;5075191;28;20529;-61
2020/12/18 05:49:04;;;;;;;15.40;13.80;;;7.40;99.90;;;;;;5074400;28;20432;-61
2020/12/18 05:51:33;;;;;;;14.10;12.70;;;7.20;99.90;;;;;;5074987;28;20388;-61
2020/12/18 05:54:08;;;;;;;15.90;14.30;;;7.20;99.90;;;;;;5074383;28;20396;-62
2020/12/18 05:56:34;;;;;;;15.47;14.13;;;7.30;99.90;;;;;;5074184;28;20443;-63
2020/12/18 05:59:20;;;;;;;17.20;15.10;;;7.20;99.90;;;;;;5074306;28;20497;-61
2020/12/18 06:01:53;;;;;;;15.60;14.13;;;7.30;99.90;;;;;;5074749;28;20480;-63
2020/12/18 06:04:24;;;;;;;17.17;15.40;;;7.30;99.90;;;;;;5074654;28;20389;-65
2020/12/18 06:06:53;;;;;;;15.73;14.03;;;7.30;99.90;;;;;;5079282;28;20439;-60
2020/12/18 06:09:23;;;;;;;18.73;15.90;;;7.30;99.90;;;;;;5074275;28;20407;-59
2020/12/18 06:11:49;;;;;;;15.73;14.30;;;7.40;99.90;;;;;;5089810;28;20392;-59
2020/12/18 06:14:17;;;;;;;15.73;14.00;;;7.30;99.90;;;;;;5094548;28;20399;-59
2020/12/18 06:16:53;;;;;;;14.40;12.90;;;7.30;99.90;;;;;;5094585;28;20438;-61
2020/12/18 06:19:21;;;;;;;18.80;16.90;;;7.20;99.90;;;;;;5080901;28;20432;-60
2020/12/18 06:21:58;;;;;;;17.87;15.33;;;7.00;99.90;;;;;;5074379;28;20495;-59
2020/12/18 06:24:25;;;;;;;15.57;14.03;;;7.00;99.90;;;;;;5073997;28;20404;-60
2020/12/18 06:26:55;;;;;;;18.70;14.20;;;7.10;99.90;;;;;;5072940;28;20486;-61
2020/12/18 06:29:26;;;;;;;12.83;11.60;;;7.20;99.90;;;;;;5074006;28;20400;-60
2020/12/18 06:31:52;;;;;;;19.77;16.63;;;7.10;99.90;;;;;;5074214;28;20408;-61
2020/12/18 06:34:26;;;;;;;17.33;14.90;;;7.00;99.90;;;;;;5073852;28;20408;-62
2020/12/18 06:36:52;;;;;;;18.87;15.50;;;7.00;99.90;;;;;;5073173;28;20777;-59
2020/12/18 06:39:37;;;;;;;16.03;14.47;;;7.00;99.90;;;;;;5074320;28;20419;-60
2020/12/18 06:42:17;;;;;;;16.23;14.63;;;7.00;99.90;;;;;;5073624;28;20827;-60
2020/12/18 06:44:48;;;;;;;15.77;14.13;;;7.10;99.90;;;;;;5074240;28;20908;-61
2020/12/18 06:47:29;;;;;;;15.40;13.67;;;6.80;99.90;;;;;;5073754;28;20412;-61
2020/12/18 06:50:00;;;;;;;17.03;15.20;;;6.80;99.90;;;;;;5074050;28;20385;-61
2020/12/18 06:52:52;;;;;;;19.47;14.37;;;6.80;99.90;;;;;;5073455;28;20480;-59
2020/12/18 06:55:26;;;;;;;15.03;13.53;;;6.90;99.90;;;;;;5074011;28;20474;-59
2020/12/18 06:58:04;;;;;;;14.37;12.97;;;7.10;99.90;;;;;;5072063;28;20931;-58
2020/12/18 07:00:31;;;;;;;16.90;14.00;;;7.30;99.90;;;;;;5072574;28;20481;-60
2020/12/18 07:02:57;;;;;;;16.30;14.57;;;7.50;99.90;;;;;;5072117;28;20507;-60
2020/12/18 07:05:42;;;;;;;24.13;18.33;;;7.50;99.90;;;;;;5073480;28;20444;-60
2020/12/18 07:08:11;;;;;;;16.63;15.00;;;7.40;99.90;;;;;;5073025;28;20424;-61
2020/12/18 07:10:41;;;;;;;20.33;18.13;;;7.20;99.90;;;;;;5072974;28;20416;-60
2020/12/18 07:13:12;;;;;;;16.60;14.90;;;7.20;99.90;;;;;;5073740;28;20475;-59
2020/12/18 07:15:44;;;;;;;15.27;13.87;;;7.40;99.90;;;;;;5073853;28;20385;-60
2020/12/18 07:18:23;;;;;;;16.23;14.60;;;7.50;99.90;;;;;;5073037;28;20428;-58
2020/12/18 07:21:04;;;;;;;18.17;16.50;;;7.50;99.90;;;;;;5074044;28;20388;-58
2020/12/18 07:23:32;;;;;;;16.10;14.47;;;7.60;99.90;;;;;;5073245;28;20381;-59
2020/12/18 07:25:58;;;;;;;17.47;15.63;;;7.70;99.90;;;;;;5072653;28;20439;-57
2020/12/18 07:28:25;;;;;;;17.07;15.37;;;7.60;99.90;;;;;;5072560;28;20446;-60
2020/12/18 07:30:52;;;;;;;15.97;14.47;;;7.70;99.90;;;;;;5073094;28;20463;-61
2020/12/18 07:33:19;;;;;;;15.93;14.43;;;7.60;99.90;;;;;;5072356;28;20416;-60
2020/12/18 07:35:47;;;;;;;15.53;14.00;;;7.70;99.90;;;;;;5073540;28;20869;-59
2020/12/18 07:38:19;;;;;;;13.97;12.67;;;7.70;99.90;;;;;;5073132;28;20787;-60
2020/12/18 07:40:45;;;;;;;15.30;13.07;;;7.70;99.90;;;;;;5073489;28;20744;-62
2020/12/18 07:43:15;;;;;;;14.73;13.23;;;7.80;99.90;;;;;;5072875;28;20402;-61
2020/12/18 07:45:46;;;;;;;12.80;11.60;;;7.80;99.90;;;;;;5072952;28;20454;-61
2020/12/18 07:48:21;;;;;;;15.73;14.00;;;7.90;99.90;;;;;;5072901;28;20416;-61
2020/12/18 07:50:57;;;;;;;13.90;12.57;;;7.90;99.90;;;;;;5073373;28;20476;-62
2020/12/18 07:53:24;;;;;;;13.83;12.43;;;7.90;99.90;;;;;;5073317;28;20388;-60
2020/12/18 07:56:04;;;;;;;14.60;12.67;;;7.80;99.90;;;;;;5073136;28;20511;-60
2020/12/18 07:58:30;;;;;;;12.50;11.20;;;7.90;99.90;;;;;;5083028;28;20473;-62
2020/12/18 08:01:07;;;;;;;13.43;12.13;;;8.10;99.90;;;;;;5073880;28;20829;-60
2020/12/18 08:03:33;;;;;;;14.60;13.20;;;8.20;99.90;;;;;;5075224;28;20408;-59
2020/12/18 08:06:01;;;;;;;18.43;16.30;;;8.20;99.90;;;;;;5090091;28;20446;-65
2020/12/18 08:08:28;;;;;;;13.00;11.83;;;8.30;99.90;;;;;;5072788;28;20431;-60
2020/12/18 08:10:54;;;;;;;11.90;10.80;;;8.30;99.90;;;;;;5072849;28;20821;-60
2020/12/18 08:13:27;;;;;;;12.80;11.60;;;8.40;99.90;;;;;;5076582;28;20542;-61
2020/12/18 08:16:09;;;;;;;13.70;12.40;;;8.30;99.90;;;;;;5076973;28;20513;-58
2020/12/18 08:18:36;;;;;;;12.33;11.27;;;8.40;99.90;;;;;;5076375;28;20471;-60
2020/12/18 08:21:02;;;;;;;12.17;11.03;;;8.40;99.90;;;;;;5077052;28;20404;-63
2020/12/18 08:23:29;;;;;;;12.43;11.23;;;8.50;99.90;;;;;;5077060;28;20834;-60
2020/12/18 08:25:56;;;;;;;11.60;10.50;;;8.60;99.90;;;;;;5076717;28;20443;-59
2020/12/18 08:28:25;;;;;;;11.80;10.70;;;8.70;99.90;;;;;;5076174;28;20449;-59
2020/12/18 08:30:52;;;;;;;14.33;13.07;;;8.80;99.90;;;;;;5076264;28;20430;-62
2020/12/18 08:33:18;;;;;;;13.43;12.13;;;8.90;99.90;;;;;;5076511;28;20919;-62
2020/12/18 08:35:47;;;;;;;13.00;11.80;;;9.00;99.90;;;;;;5076061;28;20419;-60
2020/12/18 08:38:13;;;;;;;13.00;11.80;;;9.10;99.90;;;;;;5076049;28;20929;-61
2020/12/18 08:40:43;;;;;;;13.13;11.60;;;9.20;99.90;;;;;;5076180;28;20406;-61
2020/12/18 08:43:12;;;;;;;12.53;11.37;;;9.30;99.90;;;;;;5076084;28;20406;-61
2020/12/18 08:45:42;;;;;;;12.27;11.07;;;9.40;99.90;;;;;;5076370;28;20436;-60
2020/12/18 08:48:08;;;;;;;12.60;11.40;;;9.50;99.90;;;;;;5074505;28;20435;-57
2020/12/18 08:50:34;;;;;;;11.57;10.47;;;9.60;99.90;;;;;;5076285;28;20417;-60
2020/12/18 08:53:10;;;;;;;11.77;10.57;;;9.60;99.90;;;;;;5081400;28;20903;-55
2020/12/18 08:55:37;;;;;;;12.30;10.63;;;9.60;99.90;;;;;;5086245;28;20204;-57
2020/12/18 08:58:10;;;;;;;12.77;11.23;;;9.50;99.90;;;;;;5084926;28;20419;-57
2020/12/18 09:00:36;;;;;;;13.10;10.47;;;9.70;99.90;;;;;;5086175;28;20398;-55
2020/12/18 09:03:03;;;;;;;12.80;11.47;;;9.80;99.90;;;;;;5086749;28;20874;-57
2020/12/18 09:05:30;;;;;;;12.17;10.90;;;9.90;99.90;;;;;;5085143;28;20523;-54
2020/12/18 09:07:58;;;;;;;12.63;11.33;;;10.00;99.90;;;;;;5082581;28;20423;-53
2020/12/18 09:10:41;;;;;;;14.27;12.30;;;10.10;99.90;;;;;;5084855;28;20456;-57
2020/12/18 09:13:16;;;;;;;18.20;15.27;;;10.20;99.90;;;;;;5083709;28;20387;-57
2020/12/18 09:16:03;;;;;;;18.37;16.43;;;10.10;99.90;;;;;;5082957;28;20426;-54
2020/12/18 09:18:34;;;;;;;19.63;17.00;;;10.30;99.90;;;;;;5083164;28;20436;-55
2020/12/18 09:21:14;;;;;;;18.20;16.30;;;10.30;99.90;;;;;;5083561;28;20477;-57
2020/12/18 09:23:41;;;;;;;17.63;14.70;;;10.40;99.90;;;;;;5083269;28;20389;-57
2020/12/18 09:26:07;;;;;;;18.30;15.30;;;10.40;99.90;;;;;;5084243;28;20453;-57
2020/12/18 09:28:38;;;;;;;18.90;16.60;;;10.30;99.90;;;;;;5083883;28;20784;-56
2020/12/18 09:31:09;;;;;;;17.13;15.43;;;10.30;99.90;;;;;;5085601;28;20409;-57
2020/12/18 09:33:37;;;;;;;17.43;15.37;;;10.20;99.90;;;;;;5085064;28;20412;-54
2020/12/18 09:36:11;;;;;;;19.50;15.73;;;10.10;99.90;;;;;;5085348;28;20413;-57
2020/12/18 09:38:42;;;;;;;16.37;14.27;;;10.10;99.90;;;;;;5085817;28;20432;-57
2020/12/18 09:41:17;;;;;;;16.57;14.97;;;10.00;99.90;;;;;;5085623;28;20909;-54
2020/12/18 09:43:43;;;;;;;19.20;15.23;;;10.00;99.90;;;;;;5084404;28;20430;-54
2020/12/18 09:46:18;;;;;;;17.90;16.10;;;10.00;99.90;;;;;;5084906;28;20546;-53
2020/12/18 09:48:45;;;;;;;16.03;14.53;;;10.00;99.90;;;;;;5084356;28;20450;-55
2020/12/18 09:51:12;;;;;;;19.57;17.67;;;9.90;99.90;;;;;;5084966;28;20468;-56
2020/12/18 09:53:37;;;;;;;20.40;16.40;;;10.00;99.90;;;;;;5084877;28;20407;-55
2020/12/18 09:56:06;;;;;;;16.93;15.20;;;9.90;99.90;;;;;;5083528;28;20411;-54
2020/12/18 09:58:31;;;;;;;18.77;14.97;;;9.80;99.90;;;;;;5077673;28;20285;-59
2020/12/18 10:00:57;;;;;;;14.97;13.53;;;9.80;99.90;;;;;;5075922;28;20538;-59
2020/12/18 10:03:23;;;;;;;14.83;12.70;;;9.70;99.90;;;;;;5075346;28;20239;-61
2020/12/18 10:05:48;;;;;;;15.70;12.17;;;9.90;99.90;;;;;;5074840;28;20205;-61
2020/12/18 10:08:14;;;;;;;15.03;13.47;;;9.70;99.90;;;;;;5074299;28;20233;-61
2020/12/18 10:10:40;;;;;;;20.20;14.57;;;9.90;99.90;;;;;;5074687;28;20247;-61
2020/12/18 10:13:06;;;;;;;14.57;12.77;;;9.90;99.90;;;;;;5095959;28;20170;-59
2020/12/18 10:15:31;;;;;;;17.10;12.63;;;9.80;99.90;;;;;;5094770;28;20176;-61
2020/12/18 10:17:57;;;;;;;20.00;13.63;;;9.90;99.90;;;;;;5094737;28;20193;-62
2020/12/18 10:20:23;;;;;;;16.43;13.50;;;10.00;99.90;;;;;;5094922;28;20172;-61
2020/12/18 10:22:49;;;;;;;15.40;13.90;;;10.10;99.90;;;;;;5094828;28;20403;-61
2020/12/18 10:25:14;;;;;;;18.80;15.27;;;10.30;99.90;;;;;;5094672;28;20250;-62
2020/12/18 10:27:41;;;;;;;14.83;13.33;;;10.30;99.90;;;;;;5094793;28;20438;-63
2020/12/18 10:30:08;;;;;;;18.40;16.37;;;10.40;99.90;;;;;;5093347;28;20173;-62
2020/12/18 10:32:34;;;;;;;18.37;16.00;;;10.50;99.90;;;;;;5094531;28;20403;-60
2020/12/18 10:35:00;;;;;;;15.40;13.90;;;10.30;99.90;;;;;;5093490;28;20417;-61
2020/12/18 10:37:27;;;;;;;18.60;15.10;;;10.40;99.90;;;;;;5076379;28;20951;-62
2020/12/18 10:39:53;;;;;;;16.83;15.13;;;10.30;99.90;;;;;;5074186;28;20408;-62
2020/12/18 10:42:19;;;;;;;18.43;14.10;;;10.30;99.90;;;;;;5074147;28;20415;-57
2020/12/18 10:44:44;;;;;;;17.13;15.30;;;10.40;99.90;;;;;;5074534;28;20197;-61
2020/12/18 10:47:10;;;;;;;19.50;14.87;;;10.50;99.90;;;;;;5074446;28;20467;-59
2020/12/18 10:49:36;;;;;;;18.27;13.57;;;10.50;99.90;;;;;;5074285;28;20310;-61
2020/12/18 10:52:02;;;;;;;20.80;15.00;;;10.50;99.90;;;;;;5083637;28;20647;-61
2020/12/18 10:54:28;;;;;;;19.10;15.50;;;10.50;99.90;;;;;;5094141;28;20180;-61
2020/12/18 10:56:55;;;;;;;15.00;13.50;;;10.90;99.90;;;;;;5094307;28;20200;-61
2020/12/18 10:59:21;;;;;;;16.67;13.27;;;12.10;99.90;;;;;;5093506;28;20411;-61
2020/12/18 11:01:51;;;;;;;14.03;12.53;;;14.10;99.90;;;;;;5093376;28;20411;-60
2020/12/18 11:04:17;;;;;;;19.30;15.60;;;16.10;99.90;;;;;;5094591;28;20403;-61
2020/12/18 11:06:43;;;;;;;18.33;14.80;;;17.40;99.90;;;;;;5082267;28;20459;-62
2020/12/18 11:09:08;;;;;;;13.50;12.10;;;19.10;99.90;;;;;;5073707;28;20172;-62
2020/12/18 11:11:34;;;;;;;12.17;10.97;;;20.30;97.90;;;;;;5073477;28;20208;-63
2020/12/18 11:14:00;;;;;;;13.10;11.43;;;21.20;95.40;;;;;;5073719;28;20204;-62
2020/12/18 11:16:25;;;;;;;12.60;11.50;;;21.20;93.70;;;;;;5074384;28;20258;-61
2020/12/18 11:18:51;;;;;;;12.40;11.10;;;20.20;94.40;;;;;;5073503;28;20585;-62
2020/12/18 11:21:17;;;;;;;11.40;10.20;;;19.40;95.50;;;;;;5073899;28;20154;-62
2020/12/18 11:23:42;;;;;;;12.03;10.13;;;20.40;95.00;;;;;;5073188;28;20165;-63
2020/12/18 11:26:10;;;;;;;11.20;10.30;;;21.40;93.20;;;;;;5073786;28;20466;-63
2020/12/18 11:28:36;;;;;;;13.43;12.13;;;22.10;92.30;;;;;;5072610;28;20201;-64
2020/12/18 11:31:02;;;;;;;10.70;9.70;;;23.00;90.60;;;;;;5072963;28;20409;-63
2020/12/18 11:33:27;;;;;;;11.87;10.77;;;23.60;88.30;;;;;;5073306;28;20174;-63
2020/12/18 11:35:53;;;;;;;11.20;9.27;;;24.40;84.60;;;;;;5072916;28;20435;-63
2020/12/18 11:38:19;;;;;;;10.67;9.67;;;24.70;82.10;;;;;;5072471;28;20753;-60
2020/12/18 11:40:45;;;;;;;10.87;9.87;;;25.20;79.40;;;;;;5073241;28;20561;-63
2020/12/18 11:43:10;;;;;;;11.70;10.57;;;25.40;78.00;;;;;;5073323;28;20189;-63
2020/12/18 11:45:36;;;;;;;10.63;9.63;;;25.60;76.50;;;;;;5072955;28;20193;-61
2020/12/18 11:48:02;;;;;;;11.60;9.93;;;26.00;75.20;;;;;;5076697;28;20194;-62
2020/12/18 11:50:30;;;;;;;12.53;11.00;;;26.40;73.10;;;;;;5077068;28;20516;-61
2020/12/18 11:52:59;;;;;;;22.13;19.90;;;26.60;71.40;;;;;;5076988;28;20912;-63
2020/12/18 11:55:26;;;;;;;17.43;15.83;;;26.30;71.60;;;;;;5076805;28;20419;-61
2020/12/18 11:57:52;;;;;;;13.40;12.13;;;25.60;71.90;;;;;;5077100;28;20454;-63
2020/12/18 12:00:21;;;;;;;11.43;10.43;;;25.00;73.40;;;;;;5076671;28;20776;-64
2020/12/18 12:02:48;;;;;;;13.40;11.87;;;25.20;73.50;;;;;;5075017;28;20503;-61
2020/12/18 12:05:15;;;;;;;13.97;11.20;;;25.50;72.50;;;;;;5076540;28;20444;-63
2020/12/18 12:07:41;;;;;;;11.27;10.07;;;26.30;70.90;;;;;;5076760;28;20764;-63
2020/12/18 12:10:06;;;;;;;11.20;9.63;;;26.60;69.30;;;;;;5076244;28;20412;-63
2020/12/18 12:12:32;;;;;;;10.47;9.50;;;27.10;67.20;;;;;;5076338;28;20162;-63
2020/12/18 12:14:57;;;;;;;11.10;10.00;;;27.00;67.40;;;;;;5087608;28;20169;-63
2020/12/18 12:17:23;;;;;;;11.50;9.30;;;26.30;68.00;;;;;;5096678;28;20553;-63
2020/12/18 12:19:48;;;;;;;10.93;10.00;;;26.60;68.00;;;;;;5096455;28;20301;-63
2020/12/18 12:22:15;;;;;;;16.70;9.43;;;27.10;66.00;;;;;;5096643;28;20201;-63
2020/12/18 12:24:42;;;;;;;11.73;10.73;;;27.40;64.60;;;;;;5096421;28;20169;-63
2020/12/18 12:27:12;;;;;;;13.23;12.03;;;26.30;66.20;;;;;;5096802;28;20468;-62
2020/12/18 12:29:38;;;;;;;13.70;12.43;;;24.20;70.00;;;;;;5096223;28;20414;-63
2020/12/18 12:32:05;;;;;;;14.40;13.00;;;22.50;74.30;;;;;;5090665;28;20440;-62
2020/12/18 12:34:31;;;;;;;13.40;11.97;;;20.40;79.70;;;;;;5084640;28;20182;-62
2020/12/18 12:36:58;;;;;;;14.30;12.80;;;18.80;86.10;;;;;;5095055;28;20450;-61
2020/12/18 12:39:24;;;;;;;12.03;10.90;;;17.50;90.70;;;;;;5082283;28;20418;-62